Terminal Aerodrome Forecast
Issued by NWS Albuquerque, NM

Home | Current Version | Previous Version | Text Only | Print | Product List | Glossary On
Versions: 1 2 3 4 5 6 7 8 9 10 11 12 13 14
000
FTUS45 KABQ 221800 AAA
TAFABQ
TAF AMD
KABQ 221848Z 2219/2318 13011KT P6SM VCTS SCT100CB
      TEMPO 2220/2222 VRB15G25KT 6SM -TSRA BKN090CB
     FM222200 10012G22KT P6SM VCSH BKN090
     FM230300 09011KT P6SM VCSH BKN090
     FM230600 VRB06KT P6SM BKN090=

USA.gov is the U.S. government's official web portal to all federal, state and local government web resources and services.